Time;durP1;ratioP1;P1;durP2;ratioP2;P2;SDS_P1;SDS_P2;PMS_P1;PMS_P2;Temp;Humidity;BMP_temperature;BMP_pressure;BME280_temperature;BME280_humidity;BME280_pressure;Samples;Min_cycle;Max_cycle;Signal;HPM_P1;HPM_P2
2022/10/06 00:01:08;;;;;;;12.32;1.40;;;16.80;99.90;;;;;;4963105;28;20192;-88
2022/10/06 00:03:37;;;;;;;11.30;1.77;;;16.80;99.90;;;;;;4966401;29;20086;-86
2022/10/06 00:06:04;;;;;;;8.60;1.13;;;16.80;99.90;;;;;;4966082;29;20027;-87
2022/10/06 00:08:31;;;;;;;6.47;1.65;;;16.80;99.90;;;;;;4966345;29;20218;-87
2022/10/06 00:10:57;;;;;;;8.63;1.67;;;16.80;99.90;;;;;;4966617;29;20354;-86
2022/10/06 00:13:23;;;;;;;9.13;1.70;;;16.70;99.90;;;;;;4949346;29;20019;-87
2022/10/06 00:15:49;;;;;;;10.48;1.77;;;16.70;99.90;;;;;;4966539;29;20031;-87
2022/10/06 00:18:15;;;;;;;6.22;1.50;;;16.70;99.90;;;;;;4966226;29;20045;-86
2022/10/06 00:20:42;;;;;;;10.27;1.80;;;16.70;99.90;;;;;;4966060;29;20031;-87
2022/10/06 00:23:08;;;;;;;5.53;1.52;;;16.70;99.90;;;;;;4965400;29;20030;-86
2022/10/06 00:25:34;;;;;;;5.65;1.50;;;16.60;99.90;;;;;;4965322;29;20024;-86
2022/10/06 00:28:00;;;;;;;8.20;1.75;;;16.50;99.90;;;;;;4965580;29;20038;-86
2022/10/06 00:30:28;;;;;;;6.45;1.50;;;16.50;99.90;;;;;;4948829;29;20019;-87
2022/10/06 00:32:57;;;;;;;8.32;1.30;;;16.50;99.90;;;;;;4966173;29;20026;-87
2022/10/06 00:35:24;;;;;;;8.95;1.30;;;16.40;99.90;;;;;;4965488;29;20277;-88
2022/10/06 00:37:51;;;;;;;6.03;1.42;;;16.40;99.90;;;;;;4966132;29;20019;-86
2022/10/06 00:40:16;;;;;;;11.60;2.40;;;16.40;99.90;;;;;;4963924;28;20102;-88
2022/10/06 00:42:57;;;;;;;6.72;1.67;;;16.40;99.90;;;;;;4964555;29;20028;-87
2022/10/06 00:45:29;;;;;;;8.77;1.85;;;16.30;99.90;;;;;;4952900;29;20231;-87
2022/10/06 00:48:01;;;;;;;9.77;1.80;;;16.30;99.90;;;;;;4965146;29;20280;-87
2022/10/06 00:50:28;;;;;;;6.15;1.40;;;16.20;99.90;;;;;;4955861;29;20024;-89
2022/10/06 00:52:54;;;;;;;7.90;1.75;;;16.30;99.90;;;;;;4969239;28;20082;-86
2022/10/06 00:55:21;;;;;;;8.88;1.30;;;16.20;99.90;;;;;;4982862;28;20037;-86
2022/10/06 00:57:48;;;;;;;9.18;1.95;;;16.20;99.90;;;;;;4984537;28;20018;-87
2022/10/06 01:00:18;;;;;;;9.02;1.70;;;16.20;99.90;;;;;;4985764;28;20035;-87
2022/10/06 01:02:52;;;;;;;6.75;1.80;;;16.20;99.90;;;;;;4984312;28;20011;-87
2022/10/06 01:05:27;;;;;;;5.75;1.10;;;16.20;99.90;;;;;;4984825;28;20109;-85
2022/10/06 01:07:55;;;;;;;7.60;1.55;;;16.10;99.90;;;;;;4984470;28;20082;-85
2022/10/06 01:10:20;;;;;;;12.80;1.83;;;16.10;99.90;;;;;;4983780;28;20034;-85
2022/10/06 01:12:47;;;;;;;6.47;1.33;;;16.10;99.90;;;;;;4983036;28;20248;-86
2022/10/06 01:15:13;;;;;;;8.93;1.42;;;16.10;99.90;;;;;;4980680;28;20050;-86
2022/10/06 01:17:51;;;;;;;7.95;1.40;;;16.00;99.90;;;;;;4984703;28;20025;-86
2022/10/06 01:20:18;;;;;;;10.65;1.67;;;15.90;99.90;;;;;;4983307;28;20019;-85
2022/10/06 01:22:47;;;;;;;8.10;1.42;;;15.90;99.90;;;;;;4984412;28;20022;-85
2022/10/06 01:25:15;;;;;;;9.98;1.50;;;15.80;99.90;;;;;;4984340;28;20183;-85
2022/10/06 01:27:43;;;;;;;7.05;1.90;;;15.80;99.90;;;;;;4983908;28;20027;-86
2022/10/06 01:30:14;;;;;;;10.05;1.98;;;15.80;99.90;;;;;;4984077;28;20014;-86
2022/10/06 01:32:40;;;;;;;10.50;1.40;;;15.80;99.90;;;;;;4983351;28;20035;-87
2022/10/06 01:35:07;;;;;;;15.98;1.83;;;15.80;99.90;;;;;;4979367;28;20377;-86
2022/10/06 01:37:33;;;;;;;7.80;1.80;;;15.80;99.90;;;;;;4982029;28;20021;-86
2022/10/06 01:39:59;;;;;;;8.10;2.38;;;15.80;99.90;;;;;;4981684;28;20030;-86
2022/10/06 01:42:25;;;;;;;9.80;1.73;;;15.80;99.90;;;;;;4984057;28;20023;-86
2022/10/06 01:44:51;;;;;;;11.93;1.98;;;15.80;99.90;;;;;;4983312;28;20074;-86
2022/10/06 01:47:16;;;;;;;9.63;1.60;;;15.80;99.90;;;;;;4985189;28;20018;-86
2022/10/06 01:49:42;;;;;;;6.35;1.60;;;15.70;99.90;;;;;;4984783;28;20023;-85
2022/10/06 01:52:08;;;;;;;6.35;1.30;;;15.70;99.90;;;;;;4970373;28;20509;-87
2022/10/06 01:54:34;;;;;;;8.85;1.45;;;15.70;99.90;;;;;;4981699;28;20479;-87
2022/10/06 01:57:00;;;;;;;10.60;1.80;;;15.60;99.90;;;;;;4983961;28;20018;-87
2022/10/06 01:59:26;;;;;;;6.05;1.27;;;15.60;99.90;;;;;;4982864;28;20033;-87
2022/10/06 02:01:51;;;;;;;11.93;1.90;;;15.50;99.90;;;;;;4982656;28;20023;-87
2022/10/06 02:04:17;;;;;;;13.52;1.88;;;15.50;99.90;;;;;;4985903;28;20029;-87
2022/10/06 02:06:43;;;;;;;8.88;1.50;;;15.40;99.90;;;;;;4974926;28;20078;-86
2022/10/06 02:09:08;;;;;;;10.00;1.55;;;15.40;99.90;;;;;;4974124;28;20054;-87
2022/10/06 02:11:35;;;;;;;9.77;1.98;;;15.40;99.90;;;;;;4980088;28;20055;-87
2022/10/06 02:14:01;;;;;;;13.48;2.05;;;15.30;99.90;;;;;;4983241;28;20103;-87
2022/10/06 02:16:27;;;;;;;9.90;1.52;;;15.30;99.90;;;;;;4984623;28;20023;-87
2022/10/06 02:18:53;;;;;;;6.57;1.20;;;15.30;99.90;;;;;;4990556;28;20195;-89
2022/10/06 02:21:21;;;;;;;12.32;1.88;;;15.20;99.90;;;;;;4983677;28;20210;-87
2022/10/06 02:23:48;;;;;;;10.75;2.00;;;15.20;99.90;;;;;;4983633;28;20015;-87
2022/10/06 02:26:18;;;;;;;8.38;1.42;;;15.10;99.90;;;;;;4964809;28;20034;-86
2022/10/06 02:28:45;;;;;;;10.13;1.70;;;15.10;99.90;;;;;;4982583;28;20334;-87
2022/10/06 02:31:12;;;;;;;6.25;1.50;;;15.10;99.90;;;;;;4962054;28;20121;-86
2022/10/06 02:33:39;;;;;;;9.35;1.63;;;15.00;99.90;;;;;;4979846;28;20022;-88
2022/10/06 02:36:05;;;;;;;11.27;1.83;;;15.00;99.90;;;;;;4982614;28;20038;-87
2022/10/06 02:38:33;;;;;;;12.85;1.40;;;15.00;99.90;;;;;;4978889;28;20085;-90
2022/10/06 02:41:01;;;;;;;11.13;1.83;;;14.90;99.90;;;;;;4981658;28;20093;-87
2022/10/06 02:43:30;;;;;;;9.10;2.17;;;14.80;99.90;;;;;;4982669;28;20026;-87
2022/10/06 02:46:00;;;;;;;10.82;1.95;;;14.90;99.90;;;;;;4982820;28;20026;-87
2022/10/06 02:48:27;;;;;;;9.50;1.60;;;14.80;99.90;;;;;;4982988;28;20376;-87
2022/10/06 02:50:58;;;;;;;10.50;1.63;;;14.80;99.90;;;;;;4981107;28;20097;-87
2022/10/06 02:53:24;;;;;;;17.73;1.73;;;14.70;99.90;;;;;;4964372;28;20039;-87
2022/10/06 02:55:58;;;;;;;14.40;1.73;;;14.70;99.90;;;;;;4963159;29;20158;-87
2022/10/06 02:58:23;;;;;;;10.77;1.70;;;14.70;99.90;;;;;;4954137;29;20019;-87
2022/10/06 03:00:49;;;;;;;10.55;1.45;;;14.60;99.90;;;;;;4962948;29;20281;-87
2022/10/06 03:03:15;;;;;;;9.07;1.42;;;14.60;99.90;;;;;;4962036;29;20139;-88
2022/10/06 03:05:40;;;;;;;10.95;1.40;;;14.60;99.90;;;;;;4963004;29;20319;-87
2022/10/06 03:08:09;;;;;;;11.02;1.80;;;14.50;99.90;;;;;;4962926;29;20200;-87
2022/10/06 03:10:35;;;;;;;9.95;1.42;;;14.50;99.90;;;;;;4962886;29;20094;-86
2022/10/06 03:13:01;;;;;;;12.63;1.63;;;14.40;99.90;;;;;;4963009;29;20035;-88
2022/10/06 03:15:27;;;;;;;12.10;2.03;;;14.40;99.90;;;;;;4962494;29;20055;-87
2022/10/06 03:17:53;;;;;;;10.48;1.92;;;14.40;99.90;;;;;;4962909;29;20326;-88
2022/10/06 03:20:19;;;;;;;10.05;1.25;;;14.40;99.90;;;;;;4959111;29;20027;-87
2022/10/06 03:22:44;;;;;;;12.63;2.17;;;14.30;99.90;;;;;;4960096;29;20027;-87
2022/10/06 03:25:10;;;;;;;14.73;2.35;;;14.30;99.90;;;;;;4958111;29;20031;-87
2022/10/06 03:27:35;;;;;;;10.20;1.90;;;14.30;99.90;;;;;;4961199;29;20027;-87
2022/10/06 03:30:02;;;;;;;13.43;2.05;;;14.30;99.90;;;;;;4961532;29;20027;-88
2022/10/06 03:32:27;;;;;;;15.13;2.55;;;14.20;99.90;;;;;;4956648;29;20059;-89
2022/10/06 03:34:53;;;;;;;9.60;1.83;;;14.20;99.90;;;;;;4962764;29;20042;-87
2022/10/06 03:37:19;;;;;;;9.35;1.60;;;14.20;99.90;;;;;;4964582;28;20022;-87
2022/10/06 03:39:44;;;;;;;11.85;2.45;;;14.20;99.90;;;;;;4966201;28;20214;-87
2022/10/06 03:42:10;;;;;;;9.63;1.65;;;14.10;99.90;;;;;;4966316;29;20039;-88
2022/10/06 03:44:36;;;;;;;10.05;2.13;;;14.00;99.90;;;;;;4961194;29;20019;-86
2022/10/06 03:47:01;;;;;;;15.40;2.30;;;14.00;99.90;;;;;;4966508;28;20071;-87
2022/10/06 03:49:27;;;;;;;16.10;2.20;;;14.00;99.90;;;;;;4952073;29;20034;-87
2022/10/06 03:51:53;;;;;;;18.83;2.55;;;13.90;99.90;;;;;;4968698;28;20189;-87
2022/10/06 03:54:19;;;;;;;8.70;1.90;;;13.90;99.90;;;;;;4986231;28;20034;-86
2022/10/06 03:56:45;;;;;;;16.67;1.98;;;13.90;99.90;;;;;;4980382;28;20042;-87
2022/10/06 03:59:12;;;;;;;13.38;2.17;;;13.90;99.90;;;;;;4982962;28;20038;-86
2022/10/06 04:01:41;;;;;;;13.57;2.00;;;13.90;99.90;;;;;;4982408;28;20026;-87
2022/10/06 04:04:08;;;;;;;13.55;2.10;;;13.80;99.90;;;;;;4983823;28;20035;-87
2022/10/06 04:06:36;;;;;;;13.25;2.25;;;13.80;99.90;;;;;;4980603;28;20026;-87
2022/10/06 04:09:06;;;;;;;16.27;2.50;;;13.80;99.90;;;;;;4958400;28;20057;-87
2022/10/06 04:11:36;;;;;;;13.50;2.10;;;13.80;99.90;;;;;;4974577;28;20117;-88
2022/10/06 04:14:07;;;;;;;13.13;1.85;;;13.70;99.90;;;;;;4975324;28;20612;-87
2022/10/06 04:16:38;;;;;;;15.00;2.08;;;13.70;99.90;;;;;;4973728;28;20122;-87
2022/10/06 04:19:08;;;;;;;12.32;1.80;;;13.70;99.90;;;;;;4974440;28;20059;-88
2022/10/06 04:21:35;;;;;;;13.48;2.03;;;13.70;99.90;;;;;;4974149;28;20066;-88
2022/10/06 04:24:01;;;;;;;13.23;1.77;;;13.70;99.90;;;;;;4974062;28;20026;-87
2022/10/06 04:26:30;;;;;;;12.88;1.90;;;13.70;99.90;;;;;;4974272;28;20062;-87
2022/10/06 04:28:56;;;;;;;10.85;2.22;;;13.60;99.90;;;;;;4974416;28;20031;-87
2022/10/06 04:31:24;;;;;;;20.00;2.50;;;13.60;99.90;;;;;;4979196;28;20026;-87
2022/10/06 04:33:56;;;;;;;13.60;2.70;;;13.60;99.90;;;;;;4975991;28;20026;-89
2022/10/06 04:36:27;;;;;;;16.02;2.25;;;13.60;99.90;;;;;;4974019;28;20018;-90
2022/10/06 04:38:57;;;;;;;15.10;2.05;;;13.60;99.90;;;;;;4974704;28;20027;-87
2022/10/06 04:41:25;;;;;;;13.10;1.65;;;13.60;99.90;;;;;;4978460;28;20101;-88
2022/10/06 04:43:52;;;;;;;13.57;2.88;;;13.50;99.90;;;;;;4974841;28;20027;-90
2022/10/06 04:46:18;;;;;;;15.85;2.28;;;13.50;99.90;;;;;;4973878;28;20033;-87
2022/10/06 04:48:44;;;;;;;15.07;2.28;;;13.50;99.90;;;;;;4973920;28;20046;-87
2022/10/06 04:51:13;;;;;;;11.82;2.35;;;13.40;99.90;;;;;;4973615;28;20062;-88
2022/10/06 04:53:39;;;;;;;19.60;2.83;;;13.30;99.90;;;;;;4974733;28;20105;-87
2022/10/06 04:56:09;;;;;;;22.20;3.55;;;13.40;99.90;;;;;;4974984;28;20034;-85
2022/10/06 04:58:37;;;;;;;12.30;1.88;;;13.30;99.90;;;;;;4973153;28;20027;-85
2022/10/06 05:01:11;;;;;;;14.20;2.10;;;13.30;99.90;;;;;;4972914;28;20023;-84
2022/10/06 05:03:38;;;;;;;14.18;2.15;;;13.30;99.90;;;;;;4973522;28;20085;-83
2022/10/06 05:06:20;;;;;;;23.65;2.50;;;13.30;99.90;;;;;;4973534;28;20037;-84
2022/10/06 05:08:48;;;;;;;10.73;2.00;;;13.20;99.90;;;;;;4973196;28;20035;-84
2022/10/06 05:11:14;;;;;;;13.10;2.35;;;13.20;99.90;;;;;;4973168;28;20047;-85
2022/10/06 05:13:40;;;;;;;15.20;2.92;;;13.20;99.90;;;;;;4972964;28;20518;-86
2022/10/06 05:16:07;;;;;;;10.88;2.30;;;13.20;99.90;;;;;;4972802;28;20057;-85
2022/10/06 05:18:34;;;;;;;12.90;2.63;;;13.10;99.90;;;;;;4972158;28;20031;-85
2022/10/06 05:21:09;;;;;;;13.85;2.47;;;13.20;99.90;;;;;;4972152;28;20023;-85
2022/10/06 05:23:36;;;;;;;12.18;1.90;;;13.10;99.90;;;;;;4971935;28;20030;-86
2022/10/06 05:26:03;;;;;;;15.95;1.90;;;13.10;99.90;;;;;;4972231;28;20109;-86
2022/10/06 05:28:30;;;;;;;16.65;2.60;;;13.00;99.90;;;;;;4971621;28;20126;-84
2022/10/06 05:30:58;;;;;;;18.73;2.20;;;13.00;99.90;;;;;;4972181;28;20575;-84
2022/10/06 05:33:25;;;;;;;12.68;2.28;;;13.00;99.90;;;;;;4972662;28;20256;-85
2022/10/06 05:35:58;;;;;;;19.27;3.63;;;13.00;99.90;;;;;;4972263;28;20515;-85
2022/10/06 05:38:24;;;;;;;13.95;2.10;;;13.00;99.90;;;;;;4972837;28;20035;-85
2022/10/06 05:40:50;;;;;;;17.52;2.92;;;12.90;99.90;;;;;;4972508;28;20030;-85
2022/10/06 05:43:17;;;;;;;17.27;2.22;;;12.90;99.90;;;;;;4971973;28;20029;-85
2022/10/06 05:45:53;;;;;;;10.27;2.22;;;12.80;99.90;;;;;;4972348;28;20022;-85
2022/10/06 05:48:19;;;;;;;12.40;2.30;;;12.80;99.90;;;;;;4972173;28;20023;-85
2022/10/06 05:50:44;;;;;;;13.02;2.28;;;12.80;99.90;;;;;;4972644;28;20411;-85
2022/10/06 05:53:11;;;;;;;12.68;2.08;;;12.80;99.90;;;;;;4972442;28;20059;-85
2022/10/06 05:55:36;;;;;;;16.23;2.05;;;12.70;99.90;;;;;;4972208;28;20089;-85
2022/10/06 05:58:02;;;;;;;17.73;2.10;;;12.70;99.90;;;;;;4972122;28;20436;-85
2022/10/06 06:00:28;;;;;;;13.60;2.10;;;12.70;99.90;;;;;;4971450;28;20557;-85
2022/10/06 06:02:53;;;;;;;16.50;1.88;;;12.70;99.90;;;;;;4971953;28;20038;-85
2022/10/06 06:05:19;;;;;;;16.10;2.67;;;12.70;99.90;;;;;;4972329;28;20034;-85
2022/10/06 06:07:44;;;;;;;19.45;2.33;;;12.60;99.90;;;;;;4954612;28;20035;-86
2022/10/06 06:10:10;;;;;;;17.40;2.28;;;12.70;99.90;;;;;;4972276;28;20031;-86
2022/10/06 06:12:36;;;;;;;17.98;2.95;;;12.60;99.90;;;;;;4971760;28;20105;-85
2022/10/06 06:17:45;;;;;;;12.68;2.80;;;12.60;99.90;;;;;;4971732;28;20045;-85
2022/10/06 06:20:11;;;;;;;14.68;2.33;;;12.60;99.90;;;;;;4971829;28;20023;-86
2022/10/06 06:22:36;;;;;;;20.50;2.95;;;12.60;99.90;;;;;;4971537;28;20038;-86
2022/10/06 06:25:02;;;;;;;15.23;2.90;;;12.60;99.90;;;;;;4971610;28;20027;-86
2022/10/06 06:27:28;;;;;;;16.00;2.55;;;12.60;99.90;;;;;;4971380;28;20030;-86
2022/10/06 06:29:54;;;;;;;19.65;3.53;;;12.60;99.90;;;;;;4954295;28;20031;-86
2022/10/06 06:32:20;;;;;;;13.75;2.70;;;12.50;99.90;;;;;;4971789;28;20585;-85
2022/10/06 06:34:45;;;;;;;18.63;3.10;;;12.60;99.90;;;;;;4971585;28;20090;-85
2022/10/06 06:37:11;;;;;;;22.92;3.97;;;12.60;99.90;;;;;;4971682;28;20053;-86
2022/10/06 06:39:37;;;;;;;23.95;3.35;;;12.60;99.90;;;;;;4971695;28;20031;-86
2022/10/06 06:42:03;;;;;;;17.85;3.53;;;12.60;99.90;;;;;;4971347;28;20021;-86
2022/10/06 06:44:29;;;;;;;20.13;2.85;;;12.70;99.90;;;;;;4971133;28;20365;-86
2022/10/06 06:46:55;;;;;;;21.52;3.17;;;12.70;99.90;;;;;;4954074;28;20070;-86
2022/10/06 06:49:21;;;;;;;17.42;3.55;;;12.70;99.90;;;;;;4953756;28;20061;-86
2022/10/06 06:51:48;;;;;;;16.17;2.75;;;12.70;99.90;;;;;;4971249;28;20058;-86
2022/10/06 06:54:15;;;;;;;15.80;2.88;;;12.70;99.90;;;;;;4971355;28;20477;-85
2022/10/06 06:56:41;;;;;;;17.40;3.03;;;12.70;99.90;;;;;;4971027;28;20410;-85
2022/10/06 06:59:12;;;;;;;13.98;3.25;;;12.80;99.90;;;;;;4970959;28;20387;-85
2022/10/06 07:01:44;;;;;;;12.63;3.08;;;12.80;99.90;;;;;;4971139;28;20484;-85
2022/10/06 07:04:11;;;;;;;15.20;2.90;;;12.90;99.90;;;;;;4971175;28;20215;-86
2022/10/06 07:06:39;;;;;;;18.50;3.15;;;12.90;99.90;;;;;;4971066;28;20026;-85
2022/10/06 07:09:05;;;;;;;26.55;3.53;;;13.00;99.90;;;;;;4969728;28;20090;-85
2022/10/06 07:11:33;;;;;;;23.98;4.38;;;13.10;99.90;;;;;;4971118;28;20094;-86
2022/10/06 07:14:01;;;;;;;15.82;3.00;;;13.10;99.90;;;;;;4971280;28;20031;-85
2022/10/06 07:27:36;;;;;;;21.30;3.20;;;13.40;99.90;;;;;;4966321;28;20030;-86
2022/10/06 07:30:03;;;;;;;17.00;2.50;;;13.50;99.90;;;;;;4970897;28;20019;-86
2022/10/06 07:32:32;;;;;;;22.55;2.78;;;13.60;99.90;;;;;;4970921;28;20027;-86
2022/10/06 07:34:58;;;;;;;17.73;2.97;;;13.70;99.90;;;;;;4970877;28;20039;-86
2022/10/06 07:37:24;;;;;;;16.00;2.65;;;13.70;99.90;;;;;;4953983;28;20130;-86
2022/10/06 07:39:50;;;;;;;21.23;2.83;;;13.80;99.90;;;;;;4970733;28;20031;-86
2022/10/06 07:42:17;;;;;;;18.25;2.83;;;13.80;99.90;;;;;;4970550;28;20025;-86
2022/10/06 07:45:36;;;;;;;15.45;2.72;;;14.00;99.90;;;;;;4970815;28;20027;-85
2022/10/06 07:47:30;;;;;;;18.83;3.63;;;14.00;99.90;;;;;;4970465;28;20031;-85
2022/10/06 07:49:57;;;;;;;21.00;2.90;;;14.00;99.90;;;;;;4970663;28;20038;-86
2022/10/06 07:52:27;;;;;;;22.35;2.72;;;14.20;99.90;;;;;;4964268;28;20471;-86
2022/10/06 07:54:53;;;;;;;16.38;2.33;;;14.20;99.90;;;;;;4951302;29;20031;-85
2022/10/06 07:57:19;;;;;;;20.42;2.92;;;14.30;99.90;;;;;;4951078;29;20019;-85
2022/10/06 07:59:45;;;;;;;18.13;2.70;;;14.40;99.90;;;;;;4949983;29;20412;-87
2022/10/06 08:02:11;;;;;;;16.40;3.22;;;14.50;99.90;;;;;;4951437;28;20495;-85
2022/10/06 08:04:36;;;;;;;18.25;2.83;;;14.50;99.90;;;;;;4951130;29;20103;-85
2022/10/06 08:07:03;;;;;;;23.13;2.55;;;14.50;99.90;;;;;;4951152;29;20404;-85
2022/10/06 08:09:29;;;;;;;12.70;2.67;;;14.50;99.90;;;;;;4951153;29;20026;-85
2022/10/06 08:11:55;;;;;;;15.48;3.03;;;14.50;99.90;;;;;;4951382;29;20026;-86
2022/10/06 08:14:21;;;;;;;14.98;2.85;;;14.60;99.90;;;;;;4951077;29;20039;-86
2022/10/06 08:16:47;;;;;;;17.98;2.95;;;14.70;99.90;;;;;;4951251;29;20241;-86
2022/10/06 08:19:13;;;;;;;17.95;2.53;;;14.80;99.90;;;;;;4951138;29;20621;-85
2022/10/06 08:21:39;;;;;;;16.58;2.63;;;14.90;99.90;;;;;;4951202;28;20026;-85
2022/10/06 08:24:05;;;;;;;20.95;3.20;;;15.00;99.90;;;;;;4953660;28;20106;-85
2022/10/06 08:26:32;;;;;;;11.68;2.80;;;15.00;99.90;;;;;;4954545;29;20098;-85
2022/10/06 08:29:02;;;;;;;13.60;2.22;;;15.10;99.90;;;;;;4948586;29;20028;-86
2022/10/06 08:31:28;;;;;;;14.43;2.70;;;15.20;99.90;;;;;;4957037;29;20480;-86
2022/10/06 08:33:55;;;;;;;22.13;3.17;;;15.20;99.90;;;;;;4951214;29;20114;-86
2022/10/06 08:36:23;;;;;;;18.85;2.85;;;15.30;99.90;;;;;;4962031;29;20078;-85
2022/10/06 08:38:49;;;;;;;18.92;3.30;;;15.30;99.90;;;;;;4959424;29;20027;-85
2022/10/06 08:41:43;;;;;;;23.70;3.47;;;15.40;99.90;;;;;;4961082;29;20027;-86
2022/10/06 08:44:14;;;;;;;24.48;4.30;;;15.50;99.90;;;;;;4961933;29;20102;-86
2022/10/06 08:46:48;;;;;;;21.75;3.58;;;15.50;99.90;;;;;;4960833;28;20027;-86
2022/10/06 08:49:26;;;;;;;19.33;3.30;;;15.60;99.90;;;;;;4972244;28;20079;-86
2022/10/06 08:52:06;;;;;;;17.17;3.13;;;15.60;99.90;;;;;;4943045;28;20436;-86
2022/10/06 08:54:58;;;;;;;15.32;2.67;;;15.70;99.90;;;;;;4932500;29;20046;-86
2022/10/06 08:57:29;;;;;;;18.40;2.95;;;15.80;99.90;;;;;;4953271;29;20038;-86
2022/10/06 08:59:57;;;;;;;17.35;2.60;;;15.90;99.90;;;;;;4937208;29;20020;-86
2022/10/06 09:02:31;;;;;;;20.98;2.83;;;16.00;99.90;;;;;;4955029;29;20578;-86
2022/10/06 09:05:01;;;;;;;15.73;3.15;;;16.20;99.90;;;;;;4954299;29;20023;-86
2022/10/06 09:07:58;;;;;;;27.33;3.42;;;16.20;99.90;;;;;;4954025;29;20034;-85
2022/10/06 09:10:32;;;;;;;22.33;3.13;;;16.20;99.90;;;;;;4949941;29;20031;-86
2022/10/06 09:13:03;;;;;;;;;;;16.20;99.90;;;;;;4954558;29;20108;-86
2022/10/06 09:15:39;;;;;;;17.00;3.28;;;16.40;99.90;;;;;;4954166;29;20404;-87
2022/10/06 09:18:21;;;;;;;20.88;2.65;;;16.40;99.90;;;;;;4954120;29;20519;-86
2022/10/06 09:21:00;;;;;;;17.10;2.85;;;16.50;99.90;;;;;;4953977;29;20061;-86
2022/10/06 09:23:49;;;;;;;22.90;3.15;;;16.60;99.90;;;;;;4954021;29;20495;-86
2022/10/06 09:26:20;;;;;;;24.52;4.15;;;16.70;99.90;;;;;;4952255;29;20038;-86
2022/10/06 09:28:50;;;;;;;22.60;3.10;;;16.80;99.90;;;;;;4953361;28;20019;-86
2022/10/06 09:31:22;;;;;;;19.63;3.10;;;17.00;99.90;;;;;;4953309;29;20077;-86
2022/10/06 09:33:51;;;;;;;21.67;3.40;;;17.00;99.90;;;;;;4953051;28;20520;-86
2022/10/06 09:36:18;;;;;;;22.90;3.08;;;17.00;99.90;;;;;;4953306;29;20130;-86
2022/10/06 09:38:54;;;;;;;22.42;2.97;;;17.10;99.90;;;;;;4952415;29;20023;-86
2022/10/06 09:41:42;;;;;;;15.18;2.70;;;17.10;99.90;;;;;;4947244;29;20496;-86
2022/10/06 09:44:26;;;;;;;15.68;3.03;;;17.30;99.90;;;;;;4953560;29;20110;-86
2022/10/06 09:46:52;;;;;;;17.77;3.20;;;17.30;99.90;;;;;;4953254;28;20361;-86
2022/10/06 09:49:23;;;;;;;28.05;3.97;;;17.30;99.90;;;;;;4953092;29;20129;-86
2022/10/06 09:52:14;;;;;;;21.35;2.90;;;17.30;99.90;;;;;;4954396;28;20027;-86
2022/10/06 09:54:42;;;;;;;15.98;2.90;;;17.40;99.90;;;;;;4966420;28;20587;-86
2022/10/06 09:57:20;;;;;;;18.00;2.85;;;17.50;99.90;;;;;;4972445;28;20066;-86
2022/10/06 09:59:47;;;;;;;14.38;2.70;;;17.60;99.90;;;;;;4968613;28;20031;-86
2022/10/06 10:02:39;;;;;;;14.65;2.97;;;17.60;99.90;;;;;;4972417;28;20075;-86
2022/10/06 10:05:19;;;;;;;18.83;2.97;;;17.70;99.90;;;;;;4972067;28;20058;-86
2022/10/06 10:07:48;;;;;;;15.68;3.60;;;17.80;99.90;;;;;;4972389;28;20035;-86
2022/10/06 10:10:20;;;;;;;12.38;2.35;;;17.90;99.90;;;;;;4971051;28;20479;-86
2022/10/06 10:13:20;;;;;;;16.45;2.63;;;17.90;99.90;;;;;;4972302;28;20027;-86
2022/10/06 10:16:03;;;;;;;17.83;2.50;;;17.80;99.90;;;;;;4972041;28;20035;-86
2022/10/06 10:18:30;;;;;;;15.05;2.92;;;17.80;99.90;;;;;;4972128;28;20015;-86
2022/10/06 10:21:05;;;;;;;17.73;2.67;;;17.80;99.90;;;;;;4972035;28;20023;-86
2022/10/06 10:23:31;;;;;;;;;;;17.90;99.90;;;;;;4972530;28;20023;-86
2022/10/06 10:26:18;;;;;;;17.48;2.72;;;18.00;99.90;;;;;;4954644;28;19945;-87
2022/10/06 10:28:57;;;;;;;12.38;2.25;;;18.10;99.90;;;;;;4971790;28;20022;-86
2022/10/06 10:31:41;;;;;;;14.48;2.25;;;18.20;99.90;;;;;;4971459;28;20511;-86
2022/10/06 10:34:31;;;;;;;15.05;2.13;;;18.30;99.90;;;;;;4966652;28;20058;-86
2022/10/06 10:37:03;;;;;;;14.63;2.67;;;18.40;99.90;;;;;;4971587;28;20502;-86
2022/10/06 10:39:39;;;;;;;16.15;2.50;;;18.50;99.90;;;;;;4971780;28;20031;-86
2022/10/06 10:42:15;;;;;;;14.77;2.15;;;18.60;99.90;;;;;;4971349;28;20027;-86
2022/10/06 10:44:51;;;;;;;9.88;2.22;;;18.70;99.90;;;;;;4965921;28;20033;-86
2022/10/06 10:47:28;;;;;;;13.90;2.28;;;18.70;99.90;;;;;;4971277;28;20019;-86
2022/10/06 10:50:15;;;;;;;13.50;3.05;;;18.80;99.90;;;;;;4971520;28;20114;-86
2022/10/06 10:52:44;;;;;;;12.10;2.38;;;18.90;99.90;;;;;;4970963;28;20058;-86
2022/10/06 10:55:35;;;;;;;14.15;2.45;;;18.90;99.90;;;;;;4971098;28;20035;-86
2022/10/06 10:58:25;;;;;;;15.30;2.28;;;18.90;99.90;;;;;;4971169;28;20055;-86
2022/10/06 11:00:58;;;;;;;15.73;2.42;;;18.90;99.90;;;;;;4971170;28;20038;-86
2022/10/06 11:03:24;;;;;;;16.00;2.38;;;18.90;99.90;;;;;;4971317;28;20023;-86
2022/10/06 11:06:22;;;;;;;13.95;2.88;;;19.10;99.90;;;;;;4953807;28;20038;-87
2022/10/06 11:09:06;;;;;;;13.07;1.98;;;19.20;99.90;;;;;;4967126;28;20023;-86
2022/10/06 11:11:51;;;;;;;12.38;2.60;;;19.40;99.90;;;;;;4969090;28;20383;-86
2022/10/06 11:14:42;;;;;;;15.88;2.22;;;19.60;99.90;;;;;;4953782;28;20530;-86
2022/10/06 11:17:45;;;;;;;12.05;2.50;;;19.60;99.90;;;;;;4964620;28;20089;-86
2022/10/06 11:20:36;;;;;;;9.50;2.10;;;19.60;99.90;;;;;;4968297;28;20027;-86
2022/10/06 11:23:17;;;;;;;9.55;1.67;;;19.60;99.90;;;;;;4971023;28;20073;-86
2022/10/06 11:26:08;;;;;;;13.50;2.10;;;19.60;99.90;;;;;;4971061;28;20023;-86
2022/10/06 11:28:40;;;;;;;13.20;2.80;;;19.70;99.90;;;;;;4971101;28;20101;-87
2022/10/06 11:31:10;;;;;;;12.10;2.53;;;19.70;99.90;;;;;;4971025;28;20037;-87
2022/10/06 11:33:53;;;;;;;7.25;1.83;;;19.70;99.90;;;;;;4970736;28;20022;-86
2022/10/06 11:36:30;;;;;;;8.57;2.20;;;19.70;99.90;;;;;;4971257;28;20066;-86
2022/10/06 11:39:20;;;;;;;15.65;2.83;;;19.70;99.90;;;;;;4964800;28;20093;-86
2022/10/06 11:42:03;;;;;;;12.68;2.15;;;19.80;99.90;;;;;;4970636;28;20023;-86
2022/10/06 11:44:39;;;;;;;8.52;2.03;;;19.90;99.90;;;;;;4971096;28;20019;-86
2022/10/06 11:47:25;;;;;;;13.13;2.22;;;20.00;99.90;;;;;;4971059;28;20023;-86
2022/10/06 11:49:57;;;;;;;9.95;2.45;;;20.00;99.90;;;;;;4966249;28;20034;-86
2022/10/06 11:52:22;;;;;;;8.65;2.30;;;20.00;99.90;;;;;;4970483;28;20046;-86
2022/10/06 11:54:52;;;;;;;8.93;2.28;;;20.10;99.90;;;;;;4953081;28;20039;-86
2022/10/06 11:57:25;;;;;;;11.20;2.38;;;20.20;99.90;;;;;;4970478;28;20054;-86
2022/10/06 12:00:03;;;;;;;8.45;2.33;;;20.40;99.90;;;;;;4957379;28;20122;-86
2022/10/06 12:02:31;;;;;;;8.45;2.50;;;20.50;99.90;;;;;;4974447;28;20027;-86
2022/10/06 12:05:13;;;;;;;15.02;2.65;;;20.50;99.90;;;;;;4974394;28;20411;-86
2022/10/06 12:07:54;;;;;;;13.88;2.45;;;20.70;99.90;;;;;;4974653;28;20544;-87
2022/10/06 12:10:28;;;;;;;9.25;2.45;;;20.80;99.90;;;;;;4969262;28;20094;-87
2022/10/06 12:13:26;;;;;;;9.95;2.25;;;20.80;99.50;;;;;;4974446;28;20051;-86
2022/10/06 12:16:02;;;;;;;8.73;2.30;;;20.90;99.30;;;;;;4974213;28;20034;-86
2022/10/06 12:18:34;;;;;;;8.00;2.38;;;21.00;98.50;;;;;;4966817;28;20122;-87
2022/10/06 12:21:28;;;;;;;8.55;1.98;;;21.10;99.40;;;;;;4974224;28;20034;-86
2022/10/06 12:24:04;;;;;;;7.60;2.28;;;21.20;99.00;;;;;;4974236;28;20026;-86
2022/10/06 12:27:09;;;;;;;11.65;2.00;;;21.30;98.80;;;;;;4974225;28;20098;-86
2022/10/06 12:30:13;;;;;;;12.90;2.17;;;21.40;98.30;;;;;;4971590;28;20037;-87
2022/10/06 12:32:56;;;;;;;9.65;2.50;;;21.50;99.60;;;;;;4968219;28;20038;-87
2022/10/06 12:35:38;;;;;;;10.63;2.40;;;21.50;98.70;;;;;;4973913;28;20130;-86
2022/10/06 12:38:25;;;;;;;14.52;2.40;;;21.60;98.60;;;;;;4973994;28;20388;-86
2022/10/06 12:40:54;;;;;;;13.70;2.45;;;21.60;98.80;;;;;;4952338;28;20189;-87
2022/10/06 12:43:22;;;;;;;11.32;2.45;;;21.50;98.40;;;;;;4973561;28;20077;-86
2022/10/06 12:46:17;;;;;;;13.60;2.63;;;21.50;98.90;;;;;;4973867;28;20252;-86
2022/10/06 12:49:02;;;;;;;10.38;2.30;;;21.60;98.30;;;;;;4973631;28;20043;-87
2022/10/06 12:51:35;;;;;;;13.57;2.17;;;21.70;98.10;;;;;;4968730;28;20027;-86
2022/10/06 12:54:00;;;;;;;14.48;2.20;;;21.70;97.80;;;;;;4954245;28;20110;-86
2022/10/06 12:56:27;;;;;;;12.23;2.13;;;21.60;96.60;;;;;;4973339;28;20038;-87
2022/10/06 12:58:53;;;;;;;9.75;2.25;;;21.50;97.50;;;;;;4973304;28;20018;-87
2022/10/06 13:01:21;;;;;;;10.15;1.77;;;21.60;98.30;;;;;;4973660;28;20365;-87
2022/10/06 13:03:50;;;;;;;10.30;1.92;;;21.80;97.40;;;;;;4955955;28;20476;-87
2022/10/06 13:06:22;;;;;;;11.32;2.08;;;22.00;96.40;;;;;;4973691;28;20097;-87
2022/10/06 13:09:11;;;;;;;10.07;1.98;;;22.10;97.70;;;;;;4973076;28;20034;-87
2022/10/06 13:11:37;;;;;;;10.98;1.63;;;22.20;97.00;;;;;;4971613;28;20058;-86
2022/10/06 13:14:12;;;;;;;12.18;2.35;;;22.20;95.50;;;;;;4973467;28;20485;-87